sensor_id;sensor_type;location;lat;lon;timestamp;pressure;altitude;pressure_sealevel;temperature;humidity
36454;BME280;22478;51.740;-1.314;2022-10-29T00:00:47;100476.16;;;9.67;100.00
36454;BME280;22478;51.740;-1.314;2022-10-29T00:03:14;100473.51;;;8.38;100.00
36454;BME280;22478;51.740;-1.314;2022-10-29T00:05:42;100475.25;;;7.90;100.00
36454;BME280;22478;51.740;-1.314;2022-10-29T00:08:09;100472.59;;;7.40;100.00
36454;BME280;22478;51.740;-1.314;2022-10-29T00:10:36;100463.73;;;7.78;100.00
36454;BME280;22478;51.740;-1.314;2022-10-29T00:13:04;100456.20;;;8.40;100.00
36454;BME280;22478;51.740;-1.314;2022-10-29T00:15:32;100452.61;;;7.70;100.00
36454;BME280;22478;51.740;-1.314;2022-10-29T00:17:59;100456.34;;;7.91;100.00
36454;BME280;22478;51.740;-1.314;2022-10-29T00:20:26;100453.00;;;7.96;100.00
36454;BME280;22478;51.740;-1.314;2022-10-29T00:22:53;100453.36;;;7.56;100.00
36454;BME280;22478;51.740;-1.314;2022-10-29T00:25:21;100463.25;;;7.95;100.00
36454;BME280;22478;51.740;-1.314;2022-10-29T00:27:48;100474.00;;;10.28;100.00
36454;BME280;22478;51.740;-1.314;2022-10-29T00:30:15;100473.54;;;9.25;100.00
36454;BME280;22478;51.740;-1.314;2022-10-29T00:32:42;100471.21;;;9.24;100.00
36454;BME280;22478;51.740;-1.314;2022-10-29T00:35:09;100459.75;;;9.41;100.00
36454;BME280;22478;51.740;-1.314;2022-10-29T00:37:36;100463.08;;;9.65;100.00
36454;BME280;22478;51.740;-1.314;2022-10-29T00:40:05;100449.33;;;9.66;100.00
36454;BME280;22478;51.740;-1.314;2022-10-29T00:42:32;100449.17;;;9.41;100.00
36454;BME280;22478;51.740;-1.314;2022-10-29T00:44:59;100449.99;;;9.56;100.00
36454;BME280;22478;51.740;-1.314;2022-10-29T00:47:29;100457.57;;;10.05;100.00
36454;BME280;22478;51.740;-1.314;2022-10-29T00:50:02;100456.55;;;10.68;100.00
36454;BME280;22478;51.740;-1.314;2022-10-29T00:52:32;100448.45;;;10.65;100.00
36454;BME280;22478;51.740;-1.314;2022-10-29T00:55:03;100435.49;;;10.62;100.00
36454;BME280;22478;51.740;-1.314;2022-10-29T00:57:34;100427.79;;;8.97;100.00
36454;BME280;22478;51.740;-1.314;2022-10-29T01:00:03;100418.86;;;8.40;100.00
36454;BME280;22478;51.740;-1.314;2022-10-29T01:02:32;100423.59;;;8.78;100.00
36454;BME280;22478;51.740;-1.314;2022-10-29T01:05:02;100420.67;;;8.25;100.00
36454;BME280;22478;51.740;-1.314;2022-10-29T01:07:29;100420.56;;;9.02;100.00
36454;BME280;22478;51.740;-1.314;2022-10-29T01:09:57;100414.29;;;8.94;100.00
36454;BME280;22478;51.740;-1.314;2022-10-29T01:12:39;100408.56;;;9.31;100.00
36454;BME280;22478;51.740;-1.314;2022-10-29T01:15:14;100416.38;;;7.50;100.00
36454;BME280;22478;51.740;-1.314;2022-10-29T01:17:56;100413.30;;;7.96;100.00
36454;BME280;22478;51.740;-1.314;2022-10-29T01:21:06;100411.87;;;7.27;100.00
36454;BME280;22478;51.740;-1.314;2022-10-29T01:26:23;100398.85;;;8.14;100.00
36454;BME280;22478;51.740;-1.314;2022-10-29T01:29:10;100398.39;;;7.23;100.00
36454;BME280;22478;51.740;-1.314;2022-10-29T01:31:50;100404.38;;;6.76;100.00
36454;BME280;22478;51.740;-1.314;2022-10-29T01:34:23;100398.15;;;6.95;100.00
36454;BME280;22478;51.740;-1.314;2022-10-29T01:36:57;100391.29;;;7.36;100.00
36454;BME280;22478;51.740;-1.314;2022-10-29T01:39:34;100390.08;;;7.44;100.00
36454;BME280;22478;51.740;-1.314;2022-10-29T01:42:08;100394.46;;;7.78;100.00
36454;BME280;22478;51.740;-1.314;2022-10-29T01:44:42;100394.72;;;8.18;100.00
36454;BME280;22478;51.740;-1.314;2022-10-29T01:47:14;100390.73;;;8.31;100.00
36454;BME280;22478;51.740;-1.314;2022-10-29T01:49:44;100388.90;;;7.63;100.00
36454;BME280;22478;51.740;-1.314;2022-10-29T01:52:14;100376.39;;;7.86;100.00
36454;BME280;22478;51.740;-1.314;2022-10-29T01:54:45;100372.67;;;8.17;100.00
36454;BME280;22478;51.740;-1.314;2022-10-29T01:57:31;100365.33;;;8.77;100.00
36454;BME280;22478;51.740;-1.314;2022-10-29T02:00:00;100369.53;;;8.02;100.00
36454;BME280;22478;51.740;-1.314;2022-10-29T02:02:38;100373.81;;;7.89;100.00
36454;BME280;22478;51.740;-1.314;2022-10-29T02:05:18;100378.73;;;7.14;100.00
36454;BME280;22478;51.740;-1.314;2022-10-29T02:07:53;100374.27;;;7.54;100.00
36454;BME280;22478;51.740;-1.314;2022-10-29T02:10:27;100373.80;;;7.89;100.00
36454;BME280;22478;51.740;-1.314;2022-10-29T02:12:57;100371.15;;;7.70;100.00
36454;BME280;22478;51.740;-1.314;2022-10-29T02:15:30;100355.61;;;7.33;100.00
36454;BME280;22478;51.740;-1.314;2022-10-29T02:18:01;100342.71;;;7.77;100.00
36454;BME280;22478;51.740;-1.314;2022-10-29T02:20:29;100325.96;;;7.63;100.00
36454;BME280;22478;51.740;-1.314;2022-10-29T02:22:57;100309.82;;;7.51;100.00
36454;BME280;22478;51.740;-1.314;2022-10-29T02:25:25;100306.70;;;7.30;100.00
36454;BME280;22478;51.740;-1.314;2022-10-29T02:27:52;100306.12;;;7.12;100.00
36454;BME280;22478;51.740;-1.314;2022-10-29T02:30:19;100304.09;;;6.76;100.00
36454;BME280;22478;51.740;-1.314;2022-10-29T02:32:46;100310.12;;;6.93;100.00
36454;BME280;22478;51.740;-1.314;2022-10-29T02:35:14;100315.83;;;7.49;100.00
36454;BME280;22478;51.740;-1.314;2022-10-29T02:37:41;100322.57;;;7.64;100.00
36454;BME280;22478;51.740;-1.314;2022-10-29T02:40:10;100328.54;;;7.09;100.00
36454;BME280;22478;51.740;-1.314;2022-10-29T02:42:37;100332.90;;;7.33;100.00
36454;BME280;22478;51.740;-1.314;2022-10-29T02:45:05;100327.59;;;8.26;100.00
36454;BME280;22478;51.740;-1.314;2022-10-29T02:47:32;100323.13;;;7.55;100.00
36454;BME280;22478;51.740;-1.314;2022-10-29T02:50:00;100321.63;;;7.86;100.00
36454;BME280;22478;51.740;-1.314;2022-10-29T02:52:27;100323.65;;;7.58;100.00
36454;BME280;22478;51.740;-1.314;2022-10-29T02:54:54;100316.05;;;7.31;100.00
36454;BME280;22478;51.740;-1.314;2022-10-29T02:57:21;100307.36;;;6.56;100.00
36454;BME280;22478;51.740;-1.314;2022-10-29T02:59:48;100304.80;;;7.27;100.00
36454;BME280;22478;51.740;-1.314;2022-10-29T03:02:15;100291.65;;;7.40;100.00
36454;BME280;22478;51.740;-1.314;2022-10-29T03:04:43;100290.16;;;6.55;100.00
36454;BME280;22478;51.740;-1.314;2022-10-29T03:07:10;100287.37;;;6.70;100.00
36454;BME280;22478;51.740;-1.314;2022-10-29T03:09:37;100284.04;;;6.24;100.00
36454;BME280;22478;51.740;-1.314;2022-10-29T03:12:05;100272.87;;;7.44;100.00
36454;BME280;22478;51.740;-1.314;2022-10-29T03:14:33;100264.71;;;6.94;100.00
36454;BME280;22478;51.740;-1.314;2022-10-29T03:17:00;100254.22;;;7.45;100.00
36454;BME280;22478;51.740;-1.314;2022-10-29T03:19:27;100245.39;;;7.00;100.00
36454;BME280;22478;51.740;-1.314;2022-10-29T03:21:55;100231.91;;;7.78;100.00
36454;BME280;22478;51.740;-1.314;2022-10-29T03:24:22;100226.69;;;8.21;100.00
36454;BME280;22478;51.740;-1.314;2022-10-29T03:26:50;100222.81;;;8.01;100.00
36454;BME280;22478;51.740;-1.314;2022-10-29T03:29:16;100224.64;;;7.33;100.00
36454;BME280;22478;51.740;-1.314;2022-10-29T03:31:44;100222.98;;;7.50;100.00
36454;BME280;22478;51.740;-1.314;2022-10-29T03:34:11;100217.42;;;8.04;100.00
36454;BME280;22478;51.740;-1.314;2022-10-29T03:36:38;100218.73;;;7.97;100.00
36454;BME280;22478;51.740;-1.314;2022-10-29T03:39:06;100224.96;;;7.30;100.00
36454;BME280;22478;51.740;-1.314;2022-10-29T03:41:33;100232.72;;;7.35;100.00
36454;BME280;22478;51.740;-1.314;2022-10-29T03:44:00;100229.67;;;6.75;100.00
36454;BME280;22478;51.740;-1.314;2022-10-29T03:46:27;100229.92;;;7.10;100.00
36454;BME280;22478;51.740;-1.314;2022-10-29T03:48:54;100223.80;;;7.58;100.00
36454;BME280;22478;51.740;-1.314;2022-10-29T03:51:22;100215.89;;;8.08;100.00
36454;BME280;22478;51.740;-1.314;2022-10-29T03:53:49;100205.68;;;8.16;100.00
36454;BME280;22478;51.740;-1.314;2022-10-29T03:56:17;100197.93;;;7.05;100.00
36454;BME280;22478;51.740;-1.314;2022-10-29T03:58:44;100188.07;;;6.21;100.00
36454;BME280;22478;51.740;-1.314;2022-10-29T04:01:11;100188.79;;;7.85;100.00
36454;BME280;22478;51.740;-1.314;2022-10-29T04:03:38;100187.83;;;8.23;100.00
36454;BME280;22478;51.740;-1.314;2022-10-29T04:06:09;100172.14;;;8.99;100.00
36454;BME280;22478;51.740;-1.314;2022-10-29T04:08:37;100159.46;;;9.41;100.00
36454;BME280;22478;51.740;-1.314;2022-10-29T04:11:04;100147.30;;;8.79;100.00
36454;BME280;22478;51.740;-1.314;2022-10-29T04:13:31;100145.39;;;8.72;100.00
36454;BME280;22478;51.740;-1.314;2022-10-29T04:15:59;100136.60;;;9.09;100.00
36454;BME280;22478;51.740;-1.314;2022-10-29T04:18:26;100126.25;;;9.04;100.00
36454;BME280;22478;51.740;-1.314;2022-10-29T04:20:53;100113.01;;;8.62;100.00
36454;BME280;22478;51.740;-1.314;2022-10-29T04:23:24;100106.57;;;9.68;100.00
36454;BME280;22478;51.740;-1.314;2022-10-29T04:25:54;100102.82;;;9.01;100.00
36454;BME280;22478;51.740;-1.314;2022-10-29T04:28:22;100101.40;;;8.20;100.00
36454;BME280;22478;51.740;-1.314;2022-10-29T04:30:49;100094.91;;;8.51;100.00
36454;BME280;22478;51.740;-1.314;2022-10-29T04:33:16;100119.45;;;8.74;100.00
36454;BME280;22478;51.740;-1.314;2022-10-29T04:35:43;100130.88;;;8.58;100.00
36454;BME280;22478;51.740;-1.314;2022-10-29T04:38:11;100101.86;;;8.35;100.00
36454;BME280;22478;51.740;-1.314;2022-10-29T04:40:38;100108.55;;;7.80;100.00
36454;BME280;22478;51.740;-1.314;2022-10-29T04:43:05;100112.36;;;8.67;100.00
36454;BME280;22478;51.740;-1.314;2022-10-29T04:45:32;100117.88;;;8.31;100.00
36454;BME280;22478;51.740;-1.314;2022-10-29T04:48:00;100107.99;;;8.38;100.00
36454;BME280;22478;51.740;-1.314;2022-10-29T04:50:28;100102.37;;;8.71;100.00
36454;BME280;22478;51.740;-1.314;2022-10-29T04:52:57;100098.44;;;8.43;100.00
36454;BME280;22478;51.740;-1.314;2022-10-29T04:55:24;100095.09;;;7.57;100.00
36454;BME280;22478;51.740;-1.314;2022-10-29T04:57:51;100074.25;;;7.95;100.00
36454;BME280;22478;51.740;-1.314;2022-10-29T05:00:19;100055.06;;;9.87;100.00
36454;BME280;22478;51.740;-1.314;2022-10-29T05:02:47;100046.19;;;9.46;100.00
36454;BME280;22478;51.740;-1.314;2022-10-29T05:05:14;100039.10;;;8.89;100.00
36454;BME280;22478;51.740;-1.314;2022-10-29T05:07:41;100037.90;;;9.11;100.00
36454;BME280;22478;51.740;-1.314;2022-10-29T05:10:09;100032.35;;;8.58;100.00
36454;BME280;22478;51.740;-1.314;2022-10-29T05:12:36;100024.32;;;7.55;100.00
36454;BME280;22478;51.740;-1.314;2022-10-29T05:15:05;100022.48;;;7.99;100.00
36454;BME280;22478;51.740;-1.314;2022-10-29T05:17:36;100019.13;;;8.36;100.00
36454;BME280;22478;51.740;-1.314;2022-10-29T05:20:03;100023.71;;;8.27;100.00
36454;BME280;22478;51.740;-1.314;2022-10-29T05:22:31;100018.54;;;8.79;100.00
36454;BME280;22478;51.740;-1.314;2022-10-29T05:24:58;100004.08;;;8.93;100.00
36454;BME280;22478;51.740;-1.314;2022-10-29T05:27:25;100005.28;;;8.84;100.00
36454;BME280;22478;51.740;-1.314;2022-10-29T05:29:52;99994.66;;;9.54;100.00
36454;BME280;22478;51.740;-1.314;2022-10-29T05:32:19;99994.48;;;8.81;100.00
36454;BME280;22478;51.740;-1.314;2022-10-29T05:34:46;99988.58;;;8.95;100.00
36454;BME280;22478;51.740;-1.314;2022-10-29T05:37:13;99983.89;;;9.12;100.00
36454;BME280;22478;51.740;-1.314;2022-10-29T05:39:40;99978.65;;;9.38;100.00
36454;BME280;22478;51.740;-1.314;2022-10-29T05:42:07;99984.84;;;8.91;100.00
36454;BME280;22478;51.740;-1.314;2022-10-29T05:44:34;99979.71;;;8.96;100.00
36454;BME280;22478;51.740;-1.314;2022-10-29T05:47:02;99985.48;;;7.98;100.00
36454;BME280;22478;51.740;-1.314;2022-10-29T05:49:29;99984.40;;;7.08;100.00
36454;BME280;22478;51.740;-1.314;2022-10-29T05:51:56;99982.73;;;7.79;100.00
36454;BME280;22478;51.740;-1.314;2022-10-29T05:54:23;99980.33;;;8.25;100.00
36454;BME280;22478;51.740;-1.314;2022-10-29T05:56:50;99975.01;;;8.50;100.00
36454;BME280;22478;51.740;-1.314;2022-10-29T05:59:18;99967.90;;;7.59;100.00
36454;BME280;22478;51.740;-1.314;2022-10-29T06:01:45;99977.77;;;6.31;100.00
36454;BME280;22478;51.740;-1.314;2022-10-29T06:04:13;99973.91;;;7.75;100.00
36454;BME280;22478;51.740;-1.314;2022-10-29T06:06:39;99980.05;;;8.10;100.00
36454;BME280;22478;51.740;-1.314;2022-10-29T06:09:07;99980.73;;;8.28;100.00
36454;BME280;22478;51.740;-1.314;2022-10-29T06:11:34;99977.60;;;10.57;100.00
36454;BME280;22478;51.740;-1.314;2022-10-29T06:14:01;99981.97;;;9.14;100.00
36454;BME280;22478;51.740;-1.314;2022-10-29T06:16:29;99986.15;;;8.03;100.00
36454;BME280;22478;51.740;-1.314;2022-10-29T06:18:56;99991.30;;;9.01;100.00
36454;BME280;22478;51.740;-1.314;2022-10-29T06:21:23;99974.51;;;10.39;100.00
36454;BME280;22478;51.740;-1.314;2022-10-29T06:23:51;99977.73;;;10.06;100.00
36454;BME280;22478;51.740;-1.314;2022-10-29T06:26:18;99985.33;;;10.28;100.00
36454;BME280;22478;51.740;-1.314;2022-10-29T06:28:45;99987.31;;;10.70;100.00
36454;BME280;22478;51.740;-1.314;2022-10-29T06:31:11;99991.45;;;11.29;100.00
36454;BME280;22478;51.740;-1.314;2022-10-29T06:33:39;99981.84;;;11.78;100.00
36454;BME280;22478;51.740;-1.314;2022-10-29T06:36:07;99980.76;;;10.87;100.00
36454;BME280;22478;51.740;-1.314;2022-10-29T06:38:34;99978.21;;;11.30;100.00
36454;BME280;22478;51.740;-1.314;2022-10-29T06:41:02;99979.57;;;10.70;100.00
36454;BME280;22478;51.740;-1.314;2022-10-29T06:43:29;99972.82;;;10.35;100.00
36454;BME280;22478;51.740;-1.314;2022-10-29T06:45:56;99972.82;;;8.88;100.00
36454;BME280;22478;51.740;-1.314;2022-10-29T06:48:23;99976.95;;;9.50;100.00
36454;BME280;22478;51.740;-1.314;2022-10-29T06:50:50;99967.05;;;9.62;100.00
36454;BME280;22478;51.740;-1.314;2022-10-29T06:53:18;99974.34;;;8.78;100.00
36454;BME280;22478;51.740;-1.314;2022-10-29T06:55:45;99973.11;;;8.95;100.00
36454;BME280;22478;51.740;-1.314;2022-10-29T06:58:14;99960.50;;;8.39;100.00
36454;BME280;22478;51.740;-1.314;2022-10-29T07:00:42;99956.78;;;9.21;100.00
36454;BME280;22478;51.740;-1.314;2022-10-29T07:03:12;99947.75;;;7.26;100.00
36454;BME280;22478;51.740;-1.314;2022-10-29T07:05:40;99953.43;;;8.34;100.00
36454;BME280;22478;51.740;-1.314;2022-10-29T07:08:07;99952.33;;;7.60;100.00
36454;BME280;22478;51.740;-1.314;2022-10-29T07:10:36;99955.55;;;7.45;100.00
36454;BME280;22478;51.740;-1.314;2022-10-29T07:13:04;99954.69;;;7.76;100.00
36454;BME280;22478;51.740;-1.314;2022-10-29T07:15:31;99962.57;;;7.19;100.00
36454;BME280;22478;51.740;-1.314;2022-10-29T07:18:00;99958.28;;;8.32;100.00
36454;BME280;22478;51.740;-1.314;2022-10-29T07:20:30;99951.69;;;7.88;100.00
36454;BME280;22478;51.740;-1.314;2022-10-29T07:22:57;99959.13;;;7.86;100.00
36454;BME280;22478;51.740;-1.314;2022-10-29T07:25:25;99957.78;;;7.72;100.00
36454;BME280;22478;51.740;-1.314;2022-10-29T07:27:53;99953.84;;;7.79;100.00
36454;BME280;22478;51.740;-1.314;2022-10-29T07:30:20;99947.20;;;8.26;100.00
36454;BME280;22478;51.740;-1.314;2022-10-29T07:32:48;99947.42;;;8.31;100.00
36454;BME280;22478;51.740;-1.314;2022-10-29T07:35:15;99945.37;;;8.04;100.00
36454;BME280;22478;51.740;-1.314;2022-10-29T07:37:43;99947.53;;;8.75;100.00
36454;BME280;22478;51.740;-1.314;2022-10-29T07:40:11;99951.11;;;7.73;100.00
36454;BME280;22478;51.740;-1.314;2022-10-29T07:42:38;99957.44;;;7.54;100.00
36454;BME280;22478;51.740;-1.314;2022-10-29T07:45:06;99963.64;;;8.40;100.00
36454;BME280;22478;51.740;-1.314;2022-10-29T07:47:34;99962.31;;;9.00;100.00
36454;BME280;22478;51.740;-1.314;2022-10-29T07:50:01;99960.20;;;7.70;100.00
36454;BME280;22478;51.740;-1.314;2022-10-29T07:52:29;99961.69;;;8.38;100.00
36454;BME280;22478;51.740;-1.314;2022-10-29T07:54:56;99965.06;;;8.71;100.00
36454;BME280;22478;51.740;-1.314;2022-10-29T07:57:23;99970.14;;;9.03;100.00
36454;BME280;22478;51.740;-1.314;2022-10-29T07:59:50;99965.45;;;8.56;100.00
36454;BME280;22478;51.740;-1.314;2022-10-29T08:02:17;99955.59;;;9.23;100.00
36454;BME280;22478;51.740;-1.314;2022-10-29T08:04:44;99948.43;;;8.58;100.00
36454;BME280;22478;51.740;-1.314;2022-10-29T08:07:11;99954.11;;;8.34;100.00
36454;BME280;22478;51.740;-1.314;2022-10-29T08:09:38;99957.43;;;9.77;100.00
36454;BME280;22478;51.740;-1.314;2022-10-29T08:12:08;99960.93;;;9.40;100.00
36454;BME280;22478;51.740;-1.314;2022-10-29T08:14:35;99957.68;;;10.61;100.00
36454;BME280;22478;51.740;-1.314;2022-10-29T08:17:02;99966.10;;;9.34;100.00
36454;BME280;22478;51.740;-1.314;2022-10-29T08:19:30;99965.92;;;9.42;100.00
36454;BME280;22478;51.740;-1.314;2022-10-29T08:21:58;99961.61;;;9.97;100.00
36454;BME280;22478;51.740;-1.314;2022-10-29T08:24:25;99968.80;;;10.23;100.00
36454;BME280;22478;51.740;-1.314;2022-10-29T08:26:52;99959.39;;;10.39;100.00
36454;BME280;22478;51.740;-1.314;2022-10-29T08:29:19;99932.84;;;10.14;100.00
36454;BME280;22478;51.740;-1.314;2022-10-29T08:31:47;99941.61;;;9.56;100.00
36454;BME280;22478;51.740;-1.314;2022-10-29T08:34:14;99937.28;;;10.03;100.00
36454;BME280;22478;51.740;-1.314;2022-10-29T08:36:40;99943.03;;;9.82;100.00
36454;BME280;22478;51.740;-1.314;2022-10-29T08:39:07;99947.22;;;9.50;100.00
36454;BME280;22478;51.740;-1.314;2022-10-29T08:41:44;99951.50;;;9.83;100.00
36454;BME280;22478;51.740;-1.314;2022-10-29T08:44:24;99958.95;;;8.74;100.00
36454;BME280;22478;51.740;-1.314;2022-10-29T08:47:02;99954.43;;;9.68;100.00
36454;BME280;22478;51.740;-1.314;2022-10-29T08:49:35;99947.71;;;9.03;100.00
36454;BME280;22478;51.740;-1.314;2022-10-29T08:52:09;99948.49;;;9.41;100.00
36454;BME280;22478;51.740;-1.314;2022-10-29T08:54:39;99950.08;;;9.50;100.00
36454;BME280;22478;51.740;-1.314;2022-10-29T08:57:13;99943.72;;;10.51;100.00
36454;BME280;22478;51.740;-1.314;2022-10-29T08:59:45;99943.08;;;9.27;100.00
36454;BME280;22478;51.740;-1.314;2022-10-29T09:02:16;99946.07;;;9.82;100.00
36454;BME280;22478;51.740;-1.314;2022-10-29T09:04:44;99939.32;;;10.86;100.00
36454;BME280;22478;51.740;-1.314;2022-10-29T09:07:27;99931.19;;;10.66;100.00
36454;BME280;22478;51.740;-1.314;2022-10-29T09:10:03;99932.69;;;11.40;100.00
36454;BME280;22478;51.740;-1.314;2022-10-29T09:12:46;99923.58;;;11.34;100.00
36454;BME280;22478;51.740;-1.314;2022-10-29T09:15:29;99912.12;;;11.81;100.00
36454;BME280;22478;51.740;-1.314;2022-10-29T09:18:10;99920.53;;;10.61;100.00
36454;BME280;22478;51.740;-1.314;2022-10-29T09:20:51;99936.38;;;10.16;100.00
36454;BME280;22478;51.740;-1.314;2022-10-29T09:23:27;99927.84;;;10.07;100.00
36454;BME280;22478;51.740;-1.314;2022-10-29T09:26:01;99937.84;;;10.98;100.00
36454;BME280;22478;51.740;-1.314;2022-10-29T09:28:40;99947.77;;;11.43;100.00
36454;BME280;22478;51.740;-1.314;2022-10-29T09:31:16;99929.37;;;11.43;100.00
36454;BME280;22478;51.740;-1.314;2022-10-29T09:33:50;99929.67;;;11.12;100.00
36454;BME280;22478;51.740;-1.314;2022-10-29T09:36:21;99937.80;;;10.81;100.00
36454;BME280;22478;51.740;-1.314;2022-10-29T09:38:54;99942.19;;;9.30;100.00
36454;BME280;22478;51.740;-1.314;2022-10-29T09:41:25;99926.37;;;12.37;100.00
36454;BME280;22478;51.740;-1.314;2022-10-29T09:43:57;99933.99;;;11.39;100.00
36454;BME280;22478;51.740;-1.314;2022-10-29T09:46:34;99933.31;;;11.33;100.00
36454;BME280;22478;51.740;-1.314;2022-10-29T09:49:11;99926.26;;;12.17;100.00
36454;BME280;22478;51.740;-1.314;2022-10-29T09:51:47;99934.35;;;9.80;100.00
36454;BME280;22478;51.740;-1.314;2022-10-29T09:54:18;99929.90;;;12.13;100.00
36454;BME280;22478;51.740;-1.314;2022-10-29T09:56:46;99933.68;;;12.01;100.00
36454;BME280;22478;51.740;-1.314;2022-10-29T09:59:19;99945.14;;;10.59;100.00
36454;BME280;22478;51.740;-1.314;2022-10-29T10:01:50;99943.61;;;11.21;100.00
36454;BME280;22478;51.740;-1.314;2022-10-29T10:04:22;99942.32;;;11.71;100.00
36454;BME280;22478;51.740;-1.314;2022-10-29T10:07:09;99933.88;;;12.41;100.00
36454;BME280;22478;51.740;-1.314;2022-10-29T10:09:55;99933.05;;;11.91;100.00
36454;BME280;22478;51.740;-1.314;2022-10-29T10:12:24;99934.27;;;11.66;100.00
36454;BME280;22478;51.740;-1.314;2022-10-29T10:15:18;99924.29;;;11.48;100.00
36454;BME280;22478;51.740;-1.314;2022-10-29T10:17:56;99930.17;;;12.55;100.00
36454;BME280;22478;51.740;-1.314;2022-10-29T10:20:28;99928.42;;;12.90;100.00
36454;BME280;22478;51.740;-1.314;2022-10-29T10:22:56;99927.36;;;12.14;100.00
36454;BME280;22478;51.740;-1.314;2022-10-29T10:25:32;99929.77;;;12.33;100.00
36454;BME280;22478;51.740;-1.314;2022-10-29T10:28:03;99930.95;;;13.46;100.00
36454;BME280;22478;51.740;-1.314;2022-10-29T10:30:30;99927.54;;;12.95;100.00
36454;BME280;22478;51.740;-1.314;2022-10-29T10:33:10;99930.86;;;13.27;100.00
36454;BME280;22478;51.740;-1.314;2022-10-29T10:35:38;99934.07;;;13.07;100.00
36454;BME280;22478;51.740;-1.314;2022-10-29T10:38:07;99936.64;;;12.22;100.00
36454;BME280;22478;51.740;-1.314;2022-10-29T10:40:35;99924.06;;;11.51;100.00
36454;BME280;22478;51.740;-1.314;2022-10-29T10:43:02;99903.10;;;10.39;100.00
36454;BME280;22478;51.740;-1.314;2022-10-29T10:45:35;99908.07;;;12.10;100.00
36454;BME280;22478;51.740;-1.314;2022-10-29T10:48:07;99902.24;;;12.53;100.00
36454;BME280;22478;51.740;-1.314;2022-10-29T10:50:36;99897.12;;;12.02;100.00
36454;BME280;22478;51.740;-1.314;2022-10-29T10:53:15;99894.52;;;12.22;100.00
36454;BME280;22478;51.740;-1.314;2022-10-29T10:55:46;99892.16;;;13.01;100.00
36454;BME280;22478;51.740;-1.314;2022-10-29T10:58:20;99884.01;;;14.10;100.00
36454;BME280;22478;51.740;-1.314;2022-10-29T11:00:53;99884.15;;;14.73;100.00
36454;BME280;22478;51.740;-1.314;2022-10-29T11:03:28;99892.08;;;14.05;100.00
36454;BME280;22478;51.740;-1.314;2022-10-29T11:06:01;99905.02;;;14.04;100.00
36454;BME280;22478;51.740;-1.314;2022-10-29T11:08:33;99899.08;;;14.66;100.00
36454;BME280;22478;51.740;-1.314;2022-10-29T11:11:05;99901.54;;;14.79;100.00
36454;BME280;22478;51.740;-1.314;2022-10-29T11:13:35;99905.40;;;15.22;100.00
36454;BME280;22478;51.740;-1.314;2022-10-29T11:16:12;99896.60;;;14.19;100.00
36454;BME280;22478;51.740;-1.314;2022-10-29T11:18:44;99900.29;;;14.96;100.00
36454;BME280;22478;51.740;-1.314;2022-10-29T11:21:18;99892.60;;;14.66;100.00
36454;BME280;22478;51.740;-1.314;2022-10-29T11:23:55;99881.02;;;16.30;100.00
36454;BME280;22478;51.740;-1.314;2022-10-29T11:26:29;99880.77;;;15.96;100.00
36454;BME280;22478;51.740;-1.314;2022-10-29T11:29:03;99879.77;;;17.11;100.00
36454;BME280;22478;51.740;-1.314;2022-10-29T11:31:40;99870.20;;;17.78;100.00
36454;BME280;22478;51.740;-1.314;2022-10-29T11:34:14;99868.21;;;17.90;100.00
36454;BME280;22478;51.740;-1.314;2022-10-29T11:36:47;99871.40;;;16.37;100.00
36454;BME280;22478;51.740;-1.314;2022-10-29T11:39:21;99862.39;;;18.12;100.00
36454;BME280;22478;51.740;-1.314;2022-10-29T11:41:55;99866.22;;;16.44;100.00
36454;BME280;22478;51.740;-1.314;2022-10-29T11:44:25;99857.70;;;16.57;100.00
36454;BME280;22478;51.740;-1.314;2022-10-29T11:47:04;99851.43;;;17.71;100.00
36454;BME280;22478;51.740;-1.314;2022-10-29T11:49:56;99841.41;;;16.44;100.00
36454;BME280;22478;51.740;-1.314;2022-10-29T11:52:39;99829.15;;;18.54;100.00
36454;BME280;22478;51.740;-1.314;2022-10-29T11:55:20;99825.51;;;18.96;100.00
36454;BME280;22478;51.740;-1.314;2022-10-29T11:57:54;99824.44;;;18.46;100.00
36454;BME280;22478;51.740;-1.314;2022-10-29T12:00:27;99817.03;;;19.68;100.00
36454;BME280;22478;51.740;-1.314;2022-10-29T12:03:11;99813.02;;;18.93;100.00
36454;BME280;22478;51.740;-1.314;2022-10-29T12:05:47;99809.95;;;20.12;100.00
36454;BME280;22478;51.740;-1.314;2022-10-29T12:08:26;99821.32;;;19.05;100.00
36454;BME280;22478;51.740;-1.314;2022-10-29T12:11:02;99812.02;;;19.76;100.00
36454;BME280;22478;51.740;-1.314;2022-10-29T12:13:46;99808.22;;;19.71;100.00
36454;BME280;22478;51.740;-1.314;2022-10-29T12:16:26;99811.49;;;18.44;100.00
36454;BME280;22478;51.740;-1.314;2022-10-29T12:19:10;99814.70;;;19.67;100.00
36454;BME280;22478;51.740;-1.314;2022-10-29T12:21:47;99814.58;;;17.21;100.00
36454;BME280;22478;51.740;-1.314;2022-10-29T12:24:27;99812.60;;;17.45;100.00
36454;BME280;22478;51.740;-1.314;2022-10-29T12:27:02;99808.28;;;20.35;100.00
36454;BME280;22478;51.740;-1.314;2022-10-29T12:29:35;99799.25;;;20.20;100.00
36454;BME280;22478;51.740;-1.314;2022-10-29T12:32:07;99795.71;;;19.07;100.00
36454;BME280;22478;51.740;-1.314;2022-10-29T12:34:39;99793.55;;;18.58;100.00
36454;BME280;22478;51.740;-1.314;2022-10-29T12:37:12;99796.41;;;18.46;100.00
36454;BME280;22478;51.740;-1.314;2022-10-29T12:39:45;99785.54;;;17.27;100.00
36454;BME280;22478;51.740;-1.314;2022-10-29T12:42:19;99792.38;;;18.38;100.00
36454;BME280;22478;51.740;-1.314;2022-10-29T12:45:01;99799.86;;;18.57;100.00
36454;BME280;22478;51.740;-1.314;2022-10-29T12:47:35;99789.84;;;16.66;100.00
36454;BME280;22478;51.740;-1.314;2022-10-29T12:50:17;99790.37;;;18.17;100.00
36454;BME280;22478;51.740;-1.314;2022-10-29T12:52:56;99787.59;;;15.65;100.00
36454;BME280;22478;51.740;-1.314;2022-10-29T12:55:27;99775.77;;;16.24;100.00
36454;BME280;22478;51.740;-1.314;2022-10-29T12:57:54;99775.50;;;16.69;100.00
36454;BME280;22478;51.740;-1.314;2022-10-29T13:00:54;99769.89;;;16.13;100.00
36454;BME280;22478;51.740;-1.314;2022-10-29T13:04:27;99770.12;;;16.29;100.00